sensor_id;sensor_type;location;lat;lon;timestamp;pressure;altitude;pressure_sealevel;temperature;humidity
61474;BME280;53694;49.784;30.150;2023-09-07T00:00:01;100289.28;;;17.82;68.60
61474;BME280;53694;49.784;30.150;2023-09-07T00:01:06;100294.45;;;17.80;68.60
61474;BME280;53694;49.784;30.150;2023-09-07T00:02:07;100291.27;;;17.78;68.85
61474;BME280;53694;49.784;30.150;2023-09-07T00:03:09;100299.20;;;17.76;68.90
61474;BME280;53694;49.784;30.150;2023-09-07T00:04:10;100305.14;;;17.74;69.07
61474;BME280;53694;49.784;30.150;2023-09-07T00:05:12;100296.39;;;17.72;69.20
61474;BME280;53694;49.784;30.150;2023-09-07T00:06:14;100308.70;;;17.71;69.34
61474;BME280;53694;49.784;30.150;2023-09-07T00:07:15;100307.08;;;17.70;69.52
61474;BME280;53694;49.784;30.150;2023-09-07T00:08:17;100307.08;;;17.70;69.52
61474;BME280;53694;49.784;30.150;2023-09-07T00:09:18;100306.30;;;17.70;69.41
61474;BME280;53694;49.784;30.150;2023-09-07T00:10:20;100293.59;;;17.69;69.58
61474;BME280;53694;49.784;30.150;2023-09-07T00:11:22;100302.70;;;17.66;69.84
61474;BME280;53694;49.784;30.150;2023-09-07T00:12:23;100302.70;;;17.66;69.84
61474;BME280;53694;49.784;30.150;2023-09-07T00:13:25;100308.27;;;17.66;69.89
61474;BME280;53694;49.784;30.150;2023-09-07T00:14:26;100296.36;;;17.65;69.98
61474;BME280;53694;49.784;30.150;2023-09-07T00:15:29;100304.30;;;17.67;70.14
61474;BME280;53694;49.784;30.150;2023-09-07T00:16:31;100308.69;;;17.68;70.03
61474;BME280;53694;49.784;30.150;2023-09-07T00:17:33;100301.93;;;17.69;70.10
61474;BME280;53694;49.784;30.150;2023-09-07T00:18:36;100304.36;;;17.78;70.13
61474;BME280;53694;49.784;30.150;2023-09-07T00:19:37;100303.19;;;17.96;69.74
61474;BME280;53694;49.784;30.150;2023-09-07T00:20:39;100298.06;;;18.27;68.94
61474;BME280;53694;49.784;30.150;2023-09-07T00:21:41;100302.39;;;18.60;67.95
61474;BME280;53694;49.784;30.150;2023-09-07T00:22:42;100301.98;;;18.90;66.88
61474;BME280;53694;49.784;30.150;2023-09-07T00:23:43;100304.71;;;19.08;66.32
61474;BME280;53694;49.784;30.150;2023-09-07T00:24:45;100303.48;;;19.20;65.72
61474;BME280;53694;49.784;30.150;2023-09-07T00:25:47;100298.30;;;19.22;65.34
61474;BME280;53694;49.784;30.150;2023-09-07T00:26:49;100306.27;;;19.20;65.23
61474;BME280;53694;49.784;30.150;2023-09-07T00:27:50;100302.30;;;19.14;65.23
61474;BME280;53694;49.784;30.150;2023-09-07T00:28:52;100302.73;;;19.05;65.45
61474;BME280;53694;49.784;30.150;2023-09-07T00:29:53;100311.09;;;18.98;65.75
61474;BME280;53694;49.784;30.150;2023-09-07T00:30:55;100305.95;;;18.89;66.09
61474;BME280;53694;49.784;30.150;2023-09-07T00:31:56;100312.72;;;18.81;66.44
61474;BME280;53694;49.784;30.150;2023-09-07T00:32:58;100304.41;;;18.74;66.66
61474;BME280;53694;49.784;30.150;2023-09-07T00:34:00;100306.41;;;18.70;66.92
61474;BME280;53694;49.784;30.150;2023-09-07T00:35:02;100310.73;;;18.67;67.16
61474;BME280;53694;49.784;30.150;2023-09-07T00:36:04;100295.66;;;18.58;67.39
61474;BME280;53694;49.784;30.150;2023-09-07T00:37:05;100305.58;;;18.62;67.59
61474;BME280;53694;49.784;30.150;2023-09-07T00:38:07;100313.13;;;18.62;67.67
61474;BME280;53694;49.784;30.150;2023-09-07T00:39:08;100314.72;;;18.59;67.81
61474;BME280;53694;49.784;30.150;2023-09-07T00:40:10;100314.34;;;18.61;67.90
61474;BME280;53694;49.784;30.150;2023-09-07T00:41:13;100309.94;;;18.60;67.91
61474;BME280;53694;49.784;30.150;2023-09-07T00:42:14;100312.34;;;18.61;67.90
61474;BME280;53694;49.784;30.150;2023-09-07T00:43:16;100308.77;;;18.61;68.01
61474;BME280;53694;49.784;30.150;2023-09-07T00:44:17;100304.00;;;18.61;68.06
61474;BME280;53694;49.784;30.150;2023-09-07T00:45:19;100304.00;;;18.61;68.06
61474;BME280;53694;49.784;30.150;2023-09-07T00:46:21;100309.16;;;18.63;68.06
61474;BME280;53694;49.784;30.150;2023-09-07T00:47:22;100310.73;;;18.64;68.02
61474;BME280;53694;49.784;30.150;2023-09-07T00:48:24;100308.36;;;18.62;68.03
61474;BME280;53694;49.784;30.150;2023-09-07T00:49:26;100310.73;;;18.64;68.07
61474;BME280;53694;49.784;30.150;2023-09-07T00:50:28;100305.17;;;18.64;68.15
61474;BME280;53694;49.784;30.150;2023-09-07T00:51:31;100305.96;;;18.64;68.16
61474;BME280;53694;49.784;30.150;2023-09-07T00:52:34;100311.52;;;18.64;68.22
61474;BME280;53694;49.784;30.150;2023-09-07T00:53:36;100307.95;;;18.64;68.25
61474;BME280;53694;49.784;30.150;2023-09-07T00:54:38;100313.52;;;18.64;68.26
61474;BME280;53694;49.784;30.150;2023-09-07T00:55:40;100314.72;;;18.63;68.28
61474;BME280;53694;49.784;30.150;2023-09-07T00:56:42;100307.57;;;18.62;68.30
61474;BME280;53694;49.784;30.150;2023-09-07T00:57:44;100307.57;;;18.62;68.30
61474;BME280;53694;49.784;30.150;2023-09-07T00:58:45;100319.48;;;18.62;68.33
61474;BME280;53694;49.784;30.150;2023-09-07T00:59:47;100305.17;;;18.64;68.39
61474;BME280;53694;49.784;30.150;2023-09-07T01:00:49;100313.52;;;18.64;68.44
61474;BME280;53694;49.784;30.150;2023-09-07T01:01:51;100313.13;;;18.65;68.35
61474;BME280;53694;49.784;30.150;2023-09-07T01:02:53;100314.30;;;18.64;68.24
61474;BME280;53694;49.784;30.150;2023-09-07T01:03:54;100307.57;;;18.65;67.86
61474;BME280;53694;49.784;30.150;2023-09-07T01:04:56;100307.57;;;18.65;67.86
61474;BME280;53694;49.784;30.150;2023-09-07T01:06:12;100299.61;;;18.64;68.44
61474;BME280;53694;49.784;30.150;2023-09-07T01:07:20;100303.59;;;18.63;68.46
61474;BME280;53694;49.784;30.150;2023-09-07T01:08:39;100309.56;;;18.65;68.42
61474;BME280;53694;49.784;30.150;2023-09-07T01:09:40;100301.22;;;18.65;68.45
61474;BME280;53694;49.784;30.150;2023-09-07T01:10:43;100308.74;;;18.64;68.44
61474;BME280;53694;49.784;30.150;2023-09-07T01:11:45;100310.73;;;18.64;68.46
61474;BME280;53694;49.784;30.150;2023-09-07T01:12:46;100304.38;;;18.63;68.56
61474;BME280;53694;49.784;30.150;2023-09-07T01:13:48;100310.35;;;18.62;68.63
61474;BME280;53694;49.784;30.150;2023-09-07T01:14:50;100304.00;;;18.61;68.72
61474;BME280;53694;49.784;30.150;2023-09-07T01:15:52;100305.98;;;18.61;68.77
61474;BME280;53694;49.784;30.150;2023-09-07T01:16:54;100307.95;;;18.60;68.81
61474;BME280;53694;49.784;30.150;2023-09-07T01:17:56;100309.94;;;18.60;68.85
61474;BME280;53694;49.784;30.150;2023-09-07T01:19:00;100309.94;;;18.60;68.88
61474;BME280;53694;49.784;30.150;2023-09-07T01:20:04;100304.79;;;18.58;68.88
61474;BME280;53694;49.784;30.150;2023-09-07T01:21:07;100308.36;;;18.59;68.93
61474;BME280;53694;49.784;30.150;2023-09-07T01:22:09;100306.78;;;18.58;68.95
61474;BME280;53694;49.784;30.150;2023-09-07T01:23:12;100305.20;;;18.57;69.04
61474;BME280;53694;49.784;30.150;2023-09-07T01:24:14;100306.37;;;18.56;69.07
61474;BME280;53694;49.784;30.150;2023-09-07T01:25:17;100311.94;;;18.56;69.13
61474;BME280;53694;49.784;30.150;2023-09-07T01:26:18;100303.59;;;18.56;69.19
61474;BME280;53694;49.784;30.150;2023-09-07T01:27:20;100303.59;;;18.56;69.25
61474;BME280;53694;49.784;30.150;2023-09-07T01:28:22;100310.77;;;18.57;69.29
61474;BME280;53694;49.784;30.150;2023-09-07T01:29:24;100307.98;;;18.57;69.38
61474;BME280;53694;49.784;30.150;2023-09-07T01:30:29;100305.20;;;18.57;69.35
61474;BME280;53694;49.784;30.150;2023-09-07T01:31:36;100309.15;;;18.56;69.42
61474;BME280;53694;49.784;30.150;2023-09-07T01:32:37;100315.50;;;18.56;69.44
61474;BME280;53694;49.784;30.150;2023-09-07T01:33:39;100303.59;;;18.56;69.48
61474;BME280;53694;49.784;30.150;2023-09-07T01:34:40;100305.98;;;18.57;69.50
61474;BME280;53694;49.784;30.150;2023-09-07T01:35:42;100310.77;;;18.57;69.55
61474;BME280;53694;49.784;30.150;2023-09-07T01:36:44;100303.59;;;18.56;69.38
61474;BME280;53694;49.784;30.150;2023-09-07T01:37:46;100303.59;;;18.56;69.38
61474;BME280;53694;49.784;30.150;2023-09-07T01:38:47;100306.78;;;18.58;69.65
61474;BME280;53694;49.784;30.150;2023-09-07T01:39:49;100308.77;;;18.57;69.66
61474;BME280;53694;49.784;30.150;2023-09-07T01:40:50;100301.22;;;18.58;69.81
61474;BME280;53694;49.784;30.150;2023-09-07T01:41:52;100302.80;;;18.59;69.92
61474;BME280;53694;49.784;30.150;2023-09-07T01:42:54;100308.36;;;18.59;69.87
61474;BME280;53694;49.784;30.150;2023-09-07T01:43:55;100307.57;;;18.58;69.87
61474;BME280;53694;49.784;30.150;2023-09-07T01:44:57;100303.59;;;18.59;69.86
61474;BME280;53694;49.784;30.150;2023-09-07T01:45:58;100303.59;;;18.59;69.98
61474;BME280;53694;49.784;30.150;2023-09-07T01:47:00;100313.92;;;18.59;70.06
61474;BME280;53694;49.784;30.150;2023-09-07T01:48:02;100313.13;;;18.58;70.31
61474;BME280;53694;49.784;30.150;2023-09-07T01:49:03;100306.78;;;18.58;70.32
61474;BME280;53694;49.784;30.150;2023-09-07T01:50:05;100315.91;;;18.62;70.35
61474;BME280;53694;49.784;30.150;2023-09-07T01:51:07;100312.34;;;18.79;70.10
61474;BME280;53694;49.784;30.150;2023-09-07T01:52:09;100315.86;;;19.05;69.48
61474;BME280;53694;49.784;30.150;2023-09-07T01:53:10;100310.19;;;19.33;68.80
61474;BME280;53694;49.784;30.150;2023-09-07T01:54:12;100312.46;;;19.63;67.65
61474;BME280;53694;49.784;30.150;2023-09-07T01:55:14;100311.11;;;19.89;66.95
61474;BME280;53694;49.784;30.150;2023-09-07T01:56:17;100323.73;;;20.05;65.94
61474;BME280;53694;49.784;30.150;2023-09-07T01:57:18;100319.77;;;20.06;65.75
61474;BME280;53694;49.784;30.150;2023-09-07T01:58:20;100320.17;;;20.01;65.62
61474;BME280;53694;49.784;30.150;2023-09-07T01:59:21;100326.20;;;19.92;65.72
61474;BME280;53694;49.784;30.150;2023-09-07T02:00:23;100323.09;;;19.79;65.93
61474;BME280;53694;49.784;30.150;2023-09-07T02:01:28;100322.38;;;19.68;66.44
61474;BME280;53694;49.784;30.150;2023-09-07T02:02:29;100325.59;;;19.56;66.81
61474;BME280;53694;49.784;30.150;2023-09-07T02:03:31;100324.05;;;19.44;67.16
61474;BME280;53694;49.784;30.150;2023-09-07T02:04:32;100324.91;;;19.34;67.51
61474;BME280;53694;49.784;30.150;2023-09-07T02:05:34;100325.72;;;19.23;67.96
61474;BME280;53694;49.784;30.150;2023-09-07T02:06:36;100324.98;;;19.16;68.23
61474;BME280;53694;49.784;30.150;2023-09-07T02:07:37;100323.41;;;19.08;68.64
61474;BME280;53694;49.784;30.150;2023-09-07T02:08:39;100324.63;;;19.00;68.99
61474;BME280;53694;49.784;30.150;2023-09-07T02:09:41;100327.00;;;18.94;69.26
61474;BME280;53694;49.784;30.150;2023-09-07T02:10:43;100319.07;;;18.85;69.62
61474;BME280;53694;49.784;30.150;2023-09-07T02:11:45;100323.47;;;18.79;70.02
61474;BME280;53694;49.784;30.150;2023-09-07T02:12:46;100324.27;;;18.72;70.17
61474;BME280;53694;49.784;30.150;2023-09-07T02:13:48;100317.50;;;18.66;70.44
61474;BME280;53694;49.784;30.150;2023-09-07T02:14:49;100324.27;;;18.76;70.65
61474;BME280;53694;49.784;30.150;2023-09-07T02:15:51;100324.27;;;18.76;70.65
61474;BME280;53694;49.784;30.150;2023-09-07T02:16:52;100323.42;;;18.97;70.42
61474;BME280;53694;49.784;30.150;2023-09-07T02:17:54;100326.52;;;19.24;69.58
61474;BME280;53694;49.784;30.150;2023-09-07T02:19:03;100317.67;;;19.51;68.56
61474;BME280;53694;49.784;30.150;2023-09-07T02:20:07;100323.93;;;19.76;67.63
61474;BME280;53694;49.784;30.150;2023-09-07T02:21:09;100317.43;;;19.97;66.89
61474;BME280;53694;49.784;30.150;2023-09-07T02:22:11;100322.15;;;20.04;66.28
61474;BME280;53694;49.784;30.150;2023-09-07T02:23:12;100315.80;;;20.00;66.25
61474;BME280;53694;49.784;30.150;2023-09-07T02:24:14;100312.40;;;19.70;66.83
61474;BME280;53694;49.784;30.150;2023-09-07T02:25:15;100312.40;;;19.70;66.83
61474;BME280;53694;49.784;30.150;2023-09-07T02:26:17;100315.26;;;19.53;67.39
61474;BME280;53694;49.784;30.150;2023-09-07T02:27:19;100318.55;;;19.33;67.98
61474;BME280;53694;49.784;30.150;2023-09-07T02:28:20;100324.98;;;19.16;68.66
61474;BME280;53694;49.784;30.150;2023-09-07T02:29:22;100326.61;;;18.99;69.21
61474;BME280;53694;49.784;30.150;2023-09-07T02:30:23;100319.07;;;18.85;70.13
61474;BME280;53694;49.784;30.150;2023-09-07T02:31:25;100323.47;;;18.72;70.48
61474;BME280;53694;49.784;30.150;2023-09-07T02:32:26;100326.63;;;18.60;71.05
61474;BME280;53694;49.784;30.150;2023-09-07T02:33:28;100324.27;;;18.55;71.41
61474;BME280;53694;49.784;30.150;2023-09-07T02:34:30;100327.42;;;18.60;71.43
61474;BME280;53694;49.784;30.150;2023-09-07T02:35:31;100329.83;;;18.76;71.23
61474;BME280;53694;49.784;30.150;2023-09-07T02:36:34;100322.63;;;18.96;70.48
61474;BME280;53694;49.784;30.150;2023-09-07T02:37:36;100328.14;;;19.18;69.94
61474;BME280;53694;49.784;30.150;2023-09-07T02:38:38;100328.05;;;19.39;69.41
61474;BME280;53694;49.784;30.150;2023-09-07T02:39:39;100324.78;;;19.62;68.52
61474;BME280;53694;49.784;30.150;2023-09-07T02:40:46;100327.09;;;19.78;67.55
61474;BME280;53694;49.784;30.150;2023-09-07T02:41:45;100321.50;;;19.82;67.24
61474;BME280;53694;49.784;30.150;2023-09-07T02:42:46;100326.73;;;19.72;67.35
61474;BME280;53694;49.784;30.150;2023-09-07T02:43:48;100332.73;;;19.60;67.65
61474;BME280;53694;49.784;30.150;2023-09-07T02:44:49;100330.83;;;19.43;67.96
61474;BME280;53694;49.784;30.150;2023-09-07T02:45:51;100331.30;;;19.23;68.47
61474;BME280;53694;49.784;30.150;2023-09-07T02:46:53;100332.55;;;19.05;69.01
61474;BME280;53694;49.784;30.150;2023-09-07T02:47:54;100336.18;;;18.84;69.76
61474;BME280;53694;49.784;30.150;2023-09-07T02:48:59;100334.59;;;18.65;70.50
61474;BME280;53694;49.784;30.150;2023-09-07T02:50:00;100326.66;;;18.45;71.39
61474;BME280;53694;49.784;30.150;2023-09-07T02:51:02;100328.66;;;18.27;71.89
61474;BME280;53694;49.784;30.150;2023-09-07T02:52:04;100323.48;;;18.18;72.36
61474;BME280;53694;49.784;30.150;2023-09-07T02:53:05;100333.79;;;18.21;72.53
61474;BME280;53694;49.784;30.150;2023-09-07T02:54:07;100332.61;;;18.33;72.46
61474;BME280;53694;49.784;30.150;2023-09-07T02:55:09;100340.95;;;18.55;72.12
61474;BME280;53694;49.784;30.150;2023-09-07T02:56:10;100329.83;;;18.72;71.33
61474;BME280;53694;49.784;30.150;2023-09-07T02:57:12;100333.36;;;18.94;70.75
61474;BME280;53694;49.784;30.150;2023-09-07T02:58:13;100332.92;;;19.14;69.94
61474;BME280;53694;49.784;30.150;2023-09-07T02:59:15;100330.48;;;19.30;69.33
61474;BME280;53694;49.784;30.150;2023-09-07T03:00:17;100341.95;;;19.50;68.84
61474;BME280;53694;49.784;30.150;2023-09-07T03:01:19;100337.12;;;19.65;68.29
61474;BME280;53694;49.784;30.150;2023-09-07T03:02:20;100329.17;;;19.63;67.79
61474;BME280;53694;49.784;30.150;2023-09-07T03:03:22;100339.16;;;19.50;67.74
61474;BME280;53694;49.784;30.150;2023-09-07T03:04:23;100344.83;;;19.25;68.39
61474;BME280;53694;49.784;30.150;2023-09-07T03:05:27;100347.69;;;18.96;69.37
61474;BME280;53694;49.784;30.150;2023-09-07T03:06:29;100340.16;;;18.72;70.19
61474;BME280;53694;49.784;30.150;2023-09-07T03:07:32;100352.06;;;18.47;71.06
61474;BME280;53694;49.784;30.150;2023-09-07T03:08:34;100341.75;;;18.23;72.11
61474;BME280;53694;49.784;30.150;2023-09-07T03:09:36;100340.91;;;18.05;72.85
61474;BME280;53694;49.784;30.150;2023-09-07T03:10:38;100344.09;;;17.99;73.43
61474;BME280;53694;49.784;30.150;2023-09-07T03:11:40;100341.72;;;18.09;73.68
61474;BME280;53694;49.784;30.150;2023-09-07T03:12:41;100341.75;;;18.23;73.21
61474;BME280;53694;49.784;30.150;2023-09-07T03:13:43;100345.73;;;18.40;72.67
61474;BME280;53694;49.784;30.150;2023-09-07T03:14:44;100345.72;;;18.61;72.13
61474;BME280;53694;49.784;30.150;2023-09-07T03:15:46;100347.31;;;18.80;71.18
61474;BME280;53694;49.784;30.150;2023-09-07T03:16:48;100349.67;;;19.00;70.58
61474;BME280;53694;49.784;30.150;2023-09-07T03:17:50;100355.60;;;19.16;70.11
61474;BME280;53694;49.784;30.150;2023-09-07T03:18:51;100347.19;;;19.30;69.30
61474;BME280;53694;49.784;30.150;2023-09-07T03:19:53;100351.09;;;19.51;68.54
61474;BME280;53694;49.784;30.150;2023-09-07T03:20:55;100346.22;;;19.76;67.96
61474;BME280;53694;49.784;30.150;2023-09-07T03:21:57;100354.84;;;19.96;67.04
61474;BME280;53694;49.784;30.150;2023-09-07T03:22:59;100350.45;;;20.02;66.87
61474;BME280;53694;49.784;30.150;2023-09-07T03:24:00;100356.48;;;19.93;66.64
61474;BME280;53694;49.784;30.150;2023-09-07T03:25:02;100362.17;;;19.72;66.92
61474;BME280;53694;49.784;30.150;2023-09-07T03:26:04;100360.25;;;19.47;67.58
61474;BME280;53694;49.784;30.150;2023-09-07T03:27:05;100358.35;;;19.19;68.34
61474;BME280;53694;49.784;30.150;2023-09-07T03:28:07;100358.82;;;18.93;69.12
61474;BME280;53694;49.784;30.150;2023-09-07T03:29:08;100364.38;;;18.64;70.00
61474;BME280;53694;49.784;30.150;2023-09-07T03:30:11;100359.22;;;18.38;71.10
61474;BME280;53694;49.784;30.150;2023-09-07T03:31:13;100373.52;;;18.15;71.98
61474;BME280;53694;49.784;30.150;2023-09-07T03:32:14;100377.41;;;17.92;72.95
61474;BME280;53694;49.784;30.150;2023-09-07T03:33:16;100371.44;;;17.76;73.81
61474;BME280;53694;49.784;30.150;2023-09-07T03:34:17;100375.38;;;17.75;74.25
61474;BME280;53694;49.784;30.150;2023-09-07T03:35:19;100381.39;;;17.84;74.26
61474;BME280;53694;49.784;30.150;2023-09-07T03:36:21;100378.64;;;18.02;74.14
61474;BME280;53694;49.784;30.150;2023-09-07T03:37:22;100379.48;;;18.24;73.27
61474;BME280;53694;49.784;30.150;2023-09-07T03:38:24;100370.36;;;18.45;72.51
61474;BME280;53694;49.784;30.150;2023-09-07T03:39:26;100368.36;;;18.67;71.72
61474;BME280;53694;49.784;30.150;2023-09-07T03:40:27;100377.92;;;18.87;71.08
61474;BME280;53694;49.784;30.150;2023-09-07T03:41:29;100380.26;;;19.07;70.38
61474;BME280;53694;49.784;30.150;2023-09-07T03:42:30;100379.83;;;19.26;69.68
61474;BME280;53694;49.784;30.150;2023-09-07T03:43:32;100382.91;;;19.49;68.86
61474;BME280;53694;49.784;30.150;2023-09-07T03:44:34;100384.03;;;19.77;67.67
61474;BME280;53694;49.784;30.150;2023-09-07T03:45:35;100377.55;;;19.98;66.93
61474;BME280;53694;49.784;30.150;2023-09-07T03:46:37;100383.92;;;19.98;66.44
61474;BME280;53694;49.784;30.150;2023-09-07T03:47:38;100386.75;;;19.88;66.58
61474;BME280;53694;49.784;30.150;2023-09-07T03:48:40;100394.41;;;19.69;66.92
61474;BME280;53694;49.784;30.150;2023-09-07T03:49:41;100386.11;;;19.48;67.44
61474;BME280;53694;49.784;30.150;2023-09-07T03:50:43;100390.17;;;19.22;68.23
61474;BME280;53694;49.784;30.150;2023-09-07T03:51:45;100389.02;;;18.94;69.22
61474;BME280;53694;49.784;30.150;2023-09-07T03:52:46;100389.86;;;18.70;70.02
61474;BME280;53694;49.784;30.150;2023-09-07T03:53:47;100383.06;;;18.46;70.71
61474;BME280;53694;49.784;30.150;2023-09-07T03:54:49;100389.40;;;18.25;71.70
61474;BME280;53694;49.784;30.150;2023-09-07T03:55:50;100392.95;;;18.11;72.41
61474;BME280;53694;49.784;30.150;2023-09-07T03:56:52;100396.52;;;18.08;72.95
61474;BME280;53694;49.784;30.150;2023-09-07T03:57:54;100397.73;;;18.14;72.74
61474;BME280;53694;49.784;30.150;2023-09-07T03:58:55;100400.14;;;18.27;72.52
61474;BME280;53694;49.784;30.150;2023-09-07T03:59:57;100397.38;;;18.44;72.17
61474;BME280;53694;49.784;30.150;2023-09-07T04:00:59;100393.81;;;18.65;71.55
61474;BME280;53694;49.784;30.150;2023-09-07T04:02:01;100393.83;;;18.83;70.73
61474;BME280;53694;49.784;30.150;2023-09-07T04:03:02;100400.16;;;19.02;70.24
61474;BME280;53694;49.784;30.150;2023-09-07T04:04:05;100397.33;;;19.19;69.25
61474;BME280;53694;49.784;30.150;2023-09-07T04:05:07;100399.69;;;19.35;68.63
61474;BME280;53694;49.784;30.150;2023-09-07T04:06:08;100401.66;;;19.45;67.73
61474;BME280;53694;49.784;30.150;2023-09-07T04:07:10;100400.45;;;19.46;67.45
61474;BME280;53694;49.784;30.150;2023-09-07T04:08:11;100400.45;;;19.46;67.45
61474;BME280;53694;49.784;30.150;2023-09-07T04:09:13;100403.27;;;19.32;67.78
61474;BME280;53694;49.784;30.150;2023-09-07T04:10:15;100402.14;;;19.12;68.14
61474;BME280;53694;49.784;30.150;2023-09-07T04:11:17;100410.91;;;18.89;68.99
61474;BME280;53694;49.784;30.150;2023-09-07T04:12:18;100409.30;;;18.63;69.60
61474;BME280;53694;49.784;30.150;2023-09-07T04:13:20;100412.05;;;18.38;70.71
61474;BME280;53694;49.784;30.150;2023-09-07T04:14:22;100410.83;;;18.17;71.65
61474;BME280;53694;49.784;30.150;2023-09-07T04:15:23;100413.18;;;17.97;72.19
61474;BME280;53694;49.784;30.150;2023-09-07T04:16:25;100417.88;;;17.83;72.84
61474;BME280;53694;49.784;30.150;2023-09-07T04:17:26;100421.06;;;17.81;73.25
61474;BME280;53694;49.784;30.150;2023-09-07T04:18:28;100427.42;;;17.92;73.25
61474;BME280;53694;49.784;30.150;2023-09-07T04:19:29;100426.72;;;18.10;72.79
61474;BME280;53694;49.784;30.150;2023-09-07T04:20:31;100425.95;;;18.27;72.15
61474;BME280;53694;49.784;30.150;2023-09-07T04:21:32;100414.07;;;18.48;71.78
61474;BME280;53694;49.784;30.150;2023-09-07T04:22:34;100423.63;;;18.72;70.77
61474;BME280;53694;49.784;30.150;2023-09-07T04:23:35;100434.75;;;18.90;69.77
61474;BME280;53694;49.784;30.150;2023-09-07T04:24:37;100423.63;;;19.04;69.19
61474;BME280;53694;49.784;30.150;2023-09-07T04:25:38;100419.61;;;19.19;68.57
61474;BME280;53694;49.784;30.150;2023-09-07T04:27:00;100417.61;;;19.27;68.22
61474;BME280;53694;49.784;30.150;2023-09-07T04:28:01;100419.61;;;19.19;68.13
61474;BME280;53694;49.784;30.150;2023-09-07T04:29:03;100424.42;;;19.05;68.78
61474;BME280;53694;49.784;30.150;2023-09-07T04:30:06;100424.82;;;18.89;69.08
61474;BME280;53694;49.784;30.150;2023-09-07T04:31:08;100431.19;;;18.71;69.51
61474;BME280;53694;49.784;30.150;2023-09-07T04:32:28;100431.94;;;18.51;70.13
61474;BME280;53694;49.784;30.150;2023-09-07T04:33:33;100431.11;;;18.29;71.09
61474;BME280;53694;49.784;30.150;2023-09-07T04:34:35;100439.79;;;18.09;71.71
61474;BME280;53694;49.784;30.150;2023-09-07T04:35:37;100432.22;;;17.95;72.48
61474;BME280;53694;49.784;30.150;2023-09-07T04:36:38;100436.20;;;17.98;72.96
61474;BME280;53694;49.784;30.150;2023-09-07T04:37:43;100434.64;;;18.08;72.61
61474;BME280;53694;49.784;30.150;2023-09-07T04:38:45;100432.30;;;18.24;72.24
61474;BME280;53694;49.784;30.150;2023-09-07T04:39:51;100437.89;;;18.42;71.54
61474;BME280;53694;49.784;30.150;2023-09-07T04:40:53;100441.09;;;18.62;71.22
61474;BME280;53694;49.784;30.150;2023-09-07T04:41:54;100439.94;;;18.84;70.33
61474;BME280;53694;49.784;30.150;2023-09-07T04:42:56;100448.23;;;19.23;68.39
61474;BME280;53694;49.784;30.150;2023-09-07T04:43:58;100448.23;;;19.23;68.39
61474;BME280;53694;49.784;30.150;2023-09-07T04:44:59;100448.23;;;19.38;68.13
61474;BME280;53694;49.784;30.150;2023-09-07T04:46:01;100452.97;;;19.44;67.47
61474;BME280;53694;49.784;30.150;2023-09-07T04:47:03;100454.59;;;19.38;67.57
61474;BME280;53694;49.784;30.150;2023-09-07T04:48:05;100448.23;;;19.27;67.99
61474;BME280;53694;49.784;30.150;2023-09-07T04:49:07;100448.65;;;19.11;68.48
61474;BME280;53694;49.784;30.150;2023-09-07T04:50:10;100453.86;;;18.95;68.98
61474;BME280;53694;49.784;30.150;2023-09-07T04:51:11;100452.25;;;18.76;69.64
61474;BME280;53694;49.784;30.150;2023-09-07T04:52:13;100460.14;;;18.56;70.32
61474;BME280;53694;49.784;30.150;2023-09-07T04:53:14;100472.84;;;18.36;71.19
61474;BME280;53694;49.784;30.150;2023-09-07T04:54:16;100464.06;;;18.19;71.86
61474;BME280;53694;49.784;30.150;2023-09-07T04:55:17;100469.58;;;18.09;72.48
61474;BME280;53694;49.784;30.150;2023-09-07T04:56:20;100464.81;;;18.09;72.71
61474;BME280;53694;49.784;30.150;2023-09-07T04:57:21;100468.02;;;18.22;72.55
61474;BME280;53694;49.784;30.150;2023-09-07T04:58:23;100467.30;;;18.39;72.32
61474;BME280;53694;49.784;30.150;2023-09-07T04:59:25;100473.69;;;18.61;71.41
61474;BME280;53694;49.784;30.150;2023-09-07T05:00:27;100472.95;;;18.82;70.87
61474;BME280;53694;49.784;30.150;2023-09-07T05:01:28;100466.58;;;19.00;69.89
61474;BME280;53694;49.784;30.150;2023-09-07T05:02:30;100468.94;;;19.19;69.53
61474;BME280;53694;49.784;30.150;2023-09-07T05:03:33;100474.87;;;19.35;68.85
61474;BME280;53694;49.784;30.150;2023-09-07T05:04:35;100469.69;;;19.44;68.17
61474;BME280;53694;49.784;30.150;2023-09-07T05:05:36;100476.87;;;19.45;68.00
61474;BME280;53694;49.784;30.150;2023-09-07T05:06:38;100470.52;;;19.31;68.17
61474;BME280;53694;49.784;30.150;2023-09-07T05:07:39;100472.13;;;19.14;68.78
61474;BME280;53694;49.784;30.150;2023-09-07T05:08:41;100471.35;;;18.95;69.27
61474;BME280;53694;49.784;30.150;2023-09-07T05:09:43;100468.95;;;18.76;69.95
61474;BME280;53694;49.784;30.150;2023-09-07T05:10:44;100477.66;;;18.57;70.60
61474;BME280;53694;49.784;30.150;2023-09-07T05:11:46;100474.84;;;18.35;71.37
61474;BME280;53694;49.784;30.150;2023-09-07T05:12:47;100482.31;;;18.17;72.15
61474;BME280;53694;49.784;30.150;2023-09-07T05:13:49;100469.98;;;18.07;72.90
61474;BME280;53694;49.784;30.150;2023-09-07T05:14:50;100477.13;;;18.08;73.20
61474;BME280;53694;49.784;30.150;2023-09-07T05:15:53;100472.02;;;18.24;73.08
61474;BME280;53694;49.784;30.150;2023-09-07T05:16:55;100476.41;;;18.43;72.51
61474;BME280;53694;49.784;30.150;2023-09-07T05:17:57;100480.03;;;18.69;71.74
61474;BME280;53694;49.784;30.150;2023-09-07T05:18:59;100471.35;;;18.95;70.89
61474;BME280;53694;49.784;30.150;2023-09-07T05:20:00;100477.28;;;19.19;69.85